Time;durP1;ratioP1;P1;durP2;ratioP2;P2;SDS_P1;SDS_P2;PMS_P1;PMS_P2;Temp;Humidity;BMP_temperature;BMP_pressure;BME280_temperature;BME280_humidity;BME280_pressure;Samples;Min_cycle;Max_cycle;Signal;HPM_P1;HPM_P2
2024/01/25 00:00:58;;;;;;;12.25;4.82;;;;;;;;;;5054463;28;20084;-67
2024/01/25 00:03:24;;;;;;;11.75;4.72;;;20.50;85.20;;;;;;5090846;28;20043;-68
2024/01/25 00:05:49;;;;;;;13.38;5.03;;;20.40;85.10;;;;;;5090497;28;20052;-68
2024/01/25 00:08:15;;;;;;;13.90;4.95;;;20.60;85.30;;;;;;5071157;28;20089;-68
2024/01/25 00:10:41;;;;;;;12.75;4.95;;;;;;;;;;5073686;28;20052;-68
2024/01/25 00:13:07;;;;;;;11.52;4.50;;;20.50;85.50;;;;;;5073440;28;20048;-68
2024/01/25 00:15:32;;;;;;;10.35;4.43;;;20.20;85.40;;;;;;5059253;28;20464;-69
2024/01/25 00:17:58;;;;;;;13.90;4.75;;;;;;;;;;5091158;28;20064;-68
2024/01/25 00:20:24;;;;;;;10.73;4.18;;;19.90;85.50;;;;;;5073583;28;20100;-68
2024/01/25 00:22:50;;;;;;;11.05;4.70;;;;;;;;;;5072277;28;20035;-68
2024/01/25 00:25:16;;;;;;;11.10;4.38;;;;;;;;;;5063362;28;20124;-68
2024/01/25 00:27:44;;;;;;;11.18;4.22;;;20.00;85.90;;;;;;5073488;28;20490;-68
2024/01/25 00:30:10;;;;;;;15.07;4.47;;;19.90;86.00;;;;;;5056198;28;20044;-68
2024/01/25 00:32:36;;;;;;;12.80;4.57;;;;;;;;;;5068973;28;20044;-68
2024/01/25 00:35:03;;;;;;;11.80;4.30;;;;;;;;;;5057065;28;20052;-67
2024/01/25 00:37:29;;;;;;;11.73;4.93;;;;;;;;;;5060650;28;20052;-68
2024/01/25 00:39:55;;;;;;;9.48;3.85;;;19.60;83.60;;;;;;5076478;28;20044;-69
2024/01/25 00:42:22;;;;;;;11.43;3.95;;;19.50;85.50;;;;;;5074102;28;20088;-68
2024/01/25 00:44:48;;;;;;;9.60;4.30;;;19.50;86.80;;;;;;5075704;28;20444;-68
2024/01/25 00:47:14;;;;;;;12.98;4.35;;;;;;;;;;5062766;28;20047;-68
2024/01/25 00:49:40;;;;;;;10.43;4.70;;;;;;;;;;5076125;28;20049;-67
2024/01/25 00:52:06;;;;;;;12.68;4.85;;;19.20;87.00;;;;;;5058561;28;20044;-68
2024/01/25 00:54:32;;;;;;;12.35;4.32;;;19.10;87.10;;;;;;5075274;28;20670;-68
2024/01/25 00:56:58;;;;;;;11.45;4.15;;;19.00;87.20;;;;;;5058595;28;20051;-68
2024/01/25 00:59:24;;;;;;;10.70;4.13;;;;;;;;;;5047400;28;20139;-68
2024/01/25 01:01:50;;;;;;;10.95;4.00;;;18.90;87.60;;;;;;5069520;28;20513;-68
2024/01/25 01:04:16;;;;;;;12.07;4.30;;;18.90;84.30;;;;;;5050894;28;20053;-68
2024/01/25 01:06:41;;;;;;;10.07;4.22;;;18.80;87.80;;;;;;5075798;28;20041;-67
2024/01/25 01:09:07;;;;;;;11.82;3.92;;;18.80;88.00;;;;;;5059902;28;20074;-68
2024/01/25 01:11:34;;;;;;;12.55;4.43;;;;;;;;;;5042595;28;20123;-67
2024/01/25 01:14:00;;;;;;;12.25;3.75;;;;;;;;;;5056042;28;20052;-67
2024/01/25 01:16:26;;;;;;;10.45;3.95;;;18.60;88.40;;;;;;5036389;28;20044;-68
2024/01/25 01:18:52;;;;;;;12.77;4.22;;;;;;;;;;5093821;28;20047;-67
2024/01/25 01:21:17;;;;;;;14.43;4.63;;;18.40;88.10;;;;;;5094296;28;20390;-68
2024/01/25 01:23:43;;;;;;;10.77;3.92;;;18.30;88.60;;;;;;5076566;28;20063;-68
2024/01/25 01:26:09;;;;;;;12.88;4.55;;;;;;;;;;5093022;28;20069;-68
2024/01/25 01:28:35;;;;;;;11.45;4.13;;;;;;;;;;5075359;28;20466;-68
2024/01/25 01:31:01;;;;;;;11.48;4.13;;;18.40;88.90;;;;;;5093998;28;20058;-68
2024/01/25 01:33:28;;;;;;;13.13;4.10;;;;;;;;;;5081108;28;20056;-68
2024/01/25 01:35:54;;;;;;;12.57;4.13;;;;;;;;;;5043623;28;20124;-68
2024/01/25 01:38:20;;;;;;;11.90;3.92;;;;;;;;;;5052502;28;20048;-67
2024/01/25 01:40:46;;;;;;;12.00;4.22;;;;;;;;;;5058662;28;20048;-68
2024/01/25 01:43:23;;;;;;;14.88;4.45;;;18.20;85.00;;;;;;5073829;28;20064;-68
2024/01/25 01:45:49;;;;;;;12.25;3.88;;;18.10;89.30;;;;;;5073147;28;20052;-68
2024/01/25 01:48:15;;;;;;;10.70;4.53;;;18.20;89.40;;;;;;5062017;28;20082;-68
2024/01/25 01:50:41;;;;;;;12.57;4.45;;;;;;;;;;5039757;28;20102;-68
2024/01/25 01:53:07;;;;;;;14.57;4.13;;;18.00;89.50;;;;;;5072477;28;20045;-68
2024/01/25 01:55:33;;;;;;;11.75;4.10;;;;;;;;;;5068840;28;20039;-68
2024/01/25 01:57:59;;;;;;;11.73;3.97;;;17.90;89.60;;;;;;5072714;28;20106;-68
2024/01/25 02:00:25;;;;;;;14.18;4.45;;;;;;;;;;5090256;28;20040;-68
2024/01/25 02:02:51;;;;;;;10.18;3.90;;;;;;;;;;5075573;28;20044;-68
2024/01/25 02:05:17;;;;;;;12.43;4.15;;;17.70;89.90;;;;;;5074985;28;20127;-68
2024/01/25 02:07:43;;;;;;;10.25;4.22;;;;;;;;;;5059885;28;20466;-68
2024/01/25 02:10:09;;;;;;;12.50;4.40;;;17.80;87.10;;;;;;5069516;28;20097;-68
2024/01/25 02:12:35;;;;;;;12.07;3.88;;;;;;;;;;5054693;28;20498;-66
2024/01/25 02:15:01;;;;;;;13.07;4.55;;;;;;;;;;5056080;28;20117;-68
2024/01/25 02:17:26;;;;;;;10.82;3.92;;;17.50;90.10;;;;;;5075116;28;20066;-68
2024/01/25 02:19:52;;;;;;;12.40;3.70;;;;;;;;;;5054376;28;20040;-68
2024/01/25 02:22:21;;;;;;;13.15;4.60;;;17.70;86.40;;;;;;5075200;28;20058;-68
2024/01/25 02:24:47;;;;;;;12.13;4.32;;;;;;;;;;5058548;28;20080;-65
2024/01/25 02:27:13;;;;;;;13.00;4.55;;;;;;;;;;5074682;28;20524;-68
2024/01/25 02:29:39;;;;;;;14.20;4.10;;;;;;;;;;5074798;28;20439;-68
2024/01/25 02:32:05;;;;;;;10.82;4.28;;;17.40;90.30;;;;;;5073598;28;20394;-68
2024/01/25 02:34:31;;;;;;;11.95;4.00;;;;;;;;;;5075007;28;20104;-69
2024/01/25 02:36:57;;;;;;;12.70;4.43;;;17.30;90.40;;;;;;5074136;28;20086;-68
2024/01/25 02:39:23;;;;;;;10.65;4.60;;;17.10;90.30;;;;;;5091736;28;20071;-68
2024/01/25 02:41:49;;;;;;;12.43;4.47;;;;;;;;;;5057829;28;20441;-68
2024/01/25 02:44:15;;;;;;;15.30;4.75;;;;;;;;;;5059136;28;20088;-68
2024/01/25 02:46:41;;;;;;;16.60;4.90;;;;;;;;;;5072128;28;20040;-68
2024/01/25 02:49:07;;;;;;;14.38;4.38;;;;;;;;;;5038403;28;20056;-68
2024/01/25 02:51:33;;;;;;;13.90;4.32;;;;;;;;;;5063317;28;20087;-68
2024/01/25 02:53:59;;;;;;;11.60;4.18;;;;;;;;;;5070728;28;20367;-68
2024/01/25 02:56:26;;;;;;;13.73;4.50;;;;;;;;;;5074428;28;20155;-68
2024/01/25 02:58:52;;;;;;;11.90;4.40;;;;;;;;;;5073074;28;20067;-68
2024/01/25 03:01:18;;;;;;;10.35;4.22;;;16.90;88.90;;;;;;5072907;28;20113;-69
2024/01/25 03:03:43;;;;;;;14.40;4.60;;;17.10;90.70;;;;;;5057835;28;20566;-68
2024/01/25 03:06:09;;;;;;;13.80;4.18;;;17.10;90.60;;;;;;5057699;28;20058;-68
2024/01/25 03:08:35;;;;;;;14.23;4.32;;;;;;;;;;5057319;28;20101;-68
2024/01/25 03:11:03;;;;;;;16.42;4.70;;;;;;;;;;5074147;28;20040;-68
2024/01/25 03:13:29;;;;;;;12.15;4.22;;;;;;;;;;5053892;28;20113;-68
2024/01/25 03:15:55;;;;;;;15.95;4.97;;;;;;;;;;5054667;28;20109;-68
2024/01/25 03:18:21;;;;;;;12.73;4.22;;;;;;;;;;5056855;28;20048;-68
2024/01/25 03:20:50;;;;;;;14.63;4.45;;;;;;;;;;5074069;28;20048;-68
2024/01/25 03:23:16;;;;;;;13.68;4.28;;;;;;;;;;5072501;28;20056;-68
2024/01/25 03:25:42;;;;;;;13.68;4.55;;;;;;;;;;5074394;28;20410;-68
2024/01/25 03:28:11;;;;;;;15.25;4.68;;;;;;;;;;5073969;28;20460;-68
2024/01/25 03:30:36;;;;;;;15.45;4.80;;;16.70;90.90;;;;;;5073521;28;20044;-68
2024/01/25 03:33:02;;;;;;;13.45;4.10;;;;;;;;;;5039849;28;20048;-68
2024/01/25 03:35:28;;;;;;;12.93;4.53;;;;;;;;;;5071983;28;20047;-68
2024/01/25 03:37:54;;;;;;;14.23;4.25;;;;;;;;;;5072412;28;20485;-68
2024/01/25 03:40:21;;;;;;;14.27;4.25;;;;;;;;;;5062326;28;20424;-68
2024/01/25 03:42:47;;;;;;;15.00;4.53;;;;;;;;;;5073953;28;20059;-68
2024/01/25 03:45:13;;;;;;;10.60;4.18;;;;;;;;;;5072515;28;20849;-68
2024/01/25 03:47:39;;;;;;;13.48;4.45;;;;;;;;;;5073875;28;20085;-67
2024/01/25 03:50:06;;;;;;;15.35;4.78;;;;;;;;;;5058142;28;20056;-68
2024/01/25 03:52:32;;;;;;;13.52;4.75;;;;;;;;;;5073973;28;20060;-68
2024/01/25 03:54:58;;;;;;;13.98;4.45;;;;;;;;;;5072380;28;20042;-68
2024/01/25 03:57:24;;;;;;;13.75;4.57;;;;;;;;;;5073847;28;20052;-69
2024/01/25 03:59:50;;;;;;;14.55;4.80;;;;;;;;;;5074011;28;20076;-68
2024/01/25 04:02:16;;;;;;;13.15;4.82;;;16.30;91.00;;;;;;5072831;28;20501;-68
2024/01/25 04:04:42;;;;;;;13.45;4.13;;;;;;;;;;5090588;28;20091;-68
2024/01/25 04:07:08;;;;;;;14.57;5.38;;;;;;;;;;5071410;28;20478;-68
2024/01/25 04:09:34;;;;;;;12.40;4.40;;;;;;;;;;5076827;28;20130;-68
2024/01/25 04:12:00;;;;;;;16.02;4.82;;;16.40;91.00;;;;;;5076982;28;20036;-68
2024/01/25 04:14:26;;;;;;;14.23;4.65;;;;;;;;;;5077929;28;20043;-67
2024/01/25 04:16:52;;;;;;;15.00;4.72;;;16.40;91.10;;;;;;5076170;28;20461;-68
2024/01/25 04:19:17;;;;;;;14.90;5.03;;;16.50;91.10;;;;;;5077539;28;20098;-68
2024/01/25 04:21:43;;;;;;;16.10;5.18;;;;;;;;;;5093746;28;20048;-68
2024/01/25 04:24:09;;;;;;;16.45;5.28;;;;;;;;;;5075932;28;20063;-68
2024/01/25 04:26:35;;;;;;;15.43;5.10;;;;;;;;;;5057978;28;20075;-68
2024/01/25 04:29:02;;;;;;;14.75;4.60;;;;;;;;;;5040774;28;20084;-68
2024/01/25 04:31:28;;;;;;;13.48;4.75;;;;;;;;;;5059955;28;20040;-68
2024/01/25 04:33:54;;;;;;;15.82;4.63;;;;;;;;;;5073459;28;20057;-68
2024/01/25 04:36:20;;;;;;;15.45;4.72;;;;;;;;;;5057171;28;20048;-67
2024/01/25 04:38:46;;;;;;;16.27;4.90;;;;;;;;;;5071313;28;20506;-68
2024/01/25 04:41:11;;;;;;;15.77;5.38;;;16.00;90.80;;;;;;5058014;28;20044;-68
2024/01/25 04:43:37;;;;;;;16.40;4.82;;;16.20;91.20;;;;;;5082850;28;20039;-68
2024/01/25 04:46:03;;;;;;;15.00;5.20;;;16.20;91.20;;;;;;5094074;28;20048;-68
2024/01/25 04:48:29;;;;;;;14.77;4.75;;;16.20;90.40;;;;;;5077406;28;20040;-68
2024/01/25 04:50:58;;;;;;;13.68;5.20;;;15.90;90.00;;;;;;5077792;28;20036;-68
2024/01/25 04:53:24;;;;;;;15.55;5.13;;;;;;;;;;5076966;28;20059;-68
2024/01/25 04:55:50;;;;;;;14.52;5.28;;;;;;;;;;5059279;28;20036;-68
2024/01/25 04:58:16;;;;;;;14.68;5.75;;;;;;;;;;5075005;28;20041;-68
2024/01/25 05:00:42;;;;;;;13.60;4.95;;;;;;;;;;5074989;28;20410;-69
2024/01/25 05:03:08;;;;;;;17.02;5.25;;;;;;;;;;5057076;28;20127;-68
2024/01/25 05:05:34;;;;;;;15.48;5.18;;;;;;;;;;5069881;28;20089;-68
2024/01/25 05:08:00;;;;;;;15.48;4.80;;;;;;;;;;5070352;28;20131;-68
2024/01/25 05:10:27;;;;;;;14.68;5.13;;;;;;;;;;5076244;28;20375;-68
2024/01/25 05:12:53;;;;;;;17.02;4.95;;;;;;;;;;5094503;28;20043;-68
2024/01/25 05:15:19;;;;;;;16.55;5.72;;;16.00;91.20;;;;;;5057607;28;20044;-69
2024/01/25 05:17:45;;;;;;;15.35;5.28;;;;;;;;;;5047169;28;20048;-69
2024/01/25 05:20:12;;;;;;;13.95;4.95;;;16.10;91.30;;;;;;5076463;28;20113;-68
2024/01/25 05:22:40;;;;;;;14.85;4.78;;;;;;;;;;5077065;28;20048;-68
2024/01/25 05:25:08;;;;;;;15.18;4.60;;;;;;;;;;5082995;28;20383;-68
2024/01/25 05:27:34;;;;;;;16.92;5.15;;;;;;;;;;5092678;28;20052;-69
2024/01/25 05:29:59;;;;;;;13.02;4.55;;;16.00;90.00;;;;;;5092914;28;20044;-68
2024/01/25 05:32:26;;;;;;;17.13;5.13;;;;;;;;;;5072910;28;20410;-69
2024/01/25 05:34:52;;;;;;;13.48;4.78;;;;;;;;;;5074340;28;20063;-68
2024/01/25 05:37:18;;;;;;;17.15;4.90;;;16.10;90.10;;;;;;5066511;28;20626;-69
2024/01/25 05:39:43;;;;;;;16.65;5.25;;;15.80;90.40;;;;;;5054687;28;20127;-69
2024/01/25 05:42:09;;;;;;;19.02;5.40;;;16.00;91.30;;;;;;5022864;28;20418;-68
2024/01/25 05:44:35;;;;;;;15.68;5.00;;;;;;;;;;5039270;28;20130;-68
2024/01/25 05:47:01;;;;;;;16.75;5.22;;;;;;;;;;5073584;28;20044;-68
2024/01/25 05:49:27;;;;;;;14.35;4.63;;;;;;;;;;5044204;28;20464;-68
2024/01/25 05:51:53;;;;;;;14.98;5.00;;;;;;;;;;5093997;28;20102;-68
2024/01/25 05:54:19;;;;;;;16.17;4.85;;;15.90;91.20;;;;;;5093973;28;20055;-68
2024/01/25 05:56:45;;;;;;;17.13;4.97;;;;;;;;;;5094205;28;20493;-68
2024/01/25 05:59:12;;;;;;;16.05;4.70;;;;;;;;;;5074946;28;20501;-67
2024/01/25 06:01:38;;;;;;;20.25;6.28;;;;;;;;;;5074117;28;20048;-68
2024/01/25 06:04:03;;;;;;;14.98;5.07;;;15.80;90.30;;;;;;5073762;28;20135;-68
2024/01/25 06:06:29;;;;;;;18.55;5.70;;;;;;;;;;5055154;28;20474;-69
2024/01/25 06:08:55;;;;;;;15.85;5.05;;;15.70;90.00;;;;;;5067701;28;20055;-68
2024/01/25 06:11:21;;;;;;;19.33;5.70;;;;;;;;;;5068917;28;20045;-68
2024/01/25 06:13:47;;;;;;;14.63;4.95;;;15.80;91.30;;;;;;5055576;28;20060;-68
2024/01/25 06:16:13;;;;;;;16.23;5.20;;;;;;;;;;5055479;28;20044;-69
2024/01/25 06:18:38;;;;;;;16.23;4.75;;;15.90;90.20;;;;;;5042503;28;20047;-68
2024/01/25 06:21:04;;;;;;;14.82;5.85;;;15.70;91.20;;;;;;5092366;28;20405;-68
2024/01/25 06:23:30;;;;;;;14.43;4.50;;;;;;;;;;5075290;28;20056;-69
2024/01/25 06:25:56;;;;;;;15.40;5.40;;;15.80;90.00;;;;;;5075072;28;20131;-67
2024/01/25 06:28:22;;;;;;;19.55;5.53;;;15.70;91.20;;;;;;5058416;28;20135;-68
2024/01/25 06:30:48;;;;;;;14.70;5.13;;;;;;;;;;5064991;28;20045;-67
2024/01/25 06:33:14;;;;;;;19.63;5.88;;;;;;;;;;5038487;28;20079;-67
2024/01/25 06:35:40;;;;;;;14.48;5.28;;;;;;;;;;5054978;28;20056;-67
2024/01/25 06:38:06;;;;;;;14.70;5.15;;;;;;;;;;5055748;28;20112;-68
2024/01/25 06:40:32;;;;;;;15.43;5.28;;;15.80;91.30;;;;;;5073759;28;20052;-68
2024/01/25 06:42:58;;;;;;;14.15;4.97;;;;;;;;;;5071371;28;20126;-67
2024/01/25 06:45:24;;;;;;;16.67;5.35;;;;;;;;;;5074746;28;20504;-68
2024/01/25 06:47:50;;;;;;;15.57;5.35;;;;;;;;;;5092756;28;20043;-67
2024/01/25 06:50:16;;;;;;;16.55;5.32;;;;;;;;;;5074180;28;20164;-67
2024/01/25 06:52:42;;;;;;;15.45;5.18;;;15.80;90.90;;;;;;5091605;28;20075;-67
2024/01/25 06:55:08;;;;;;;14.90;5.10;;;15.60;91.20;;;;;;5072139;28;20118;-68
2024/01/25 06:57:34;;;;;;;16.33;5.15;;;15.60;90.10;;;;;;5054627;28;20060;-67
2024/01/25 07:00:00;;;;;;;16.92;4.82;;;;;;;;;;5054512;28;20745;-67
2024/01/25 07:02:26;;;;;;;15.18;4.82;;;;;;;;;;5071162;28;20435;-68
2024/01/25 07:04:53;;;;;;;16.67;5.20;;;;;;;;;;5057767;28;20062;-67
2024/01/25 07:07:20;;;;;;;14.55;4.93;;;;;;;;;;5058039;28;20048;-68
2024/01/25 07:09:46;;;;;;;16.38;5.22;;;;;;;;;;5092515;28;20179;-67
2024/01/25 07:12:12;;;;;;;14.77;5.28;;;;;;;;;;5072637;28;20045;-67
2024/01/25 07:14:38;;;;;;;19.25;5.78;;;;;;;;;;5078522;28;20043;-67
2024/01/25 07:17:04;;;;;;;20.50;5.93;;;;;;;;;;5094249;28;20046;-67
2024/01/25 07:19:30;;;;;;;18.27;4.93;;;;;;;;;;5077605;28;20051;-67
2024/01/25 07:21:56;;;;;;;19.50;6.07;;;;;;;;;;5088700;28;20120;-68
2024/01/25 07:24:21;;;;;;;15.98;5.72;;;15.50;91.00;;;;;;5091578;28;20062;-67
2024/01/25 07:26:47;;;;;;;16.63;5.65;;;15.40;91.20;;;;;;5074122;28;20040;-68
2024/01/25 07:29:13;;;;;;;17.67;5.45;;;;;;;;;;5056984;28;20527;-67
2024/01/25 07:31:39;;;;;;;16.05;5.03;;;;;;;;;;5073353;28;20043;-67
2024/01/25 07:34:06;;;;;;;16.33;5.32;;;;;;;;;;5057037;28;20078;-67
2024/01/25 07:36:32;;;;;;;15.15;5.03;;;;;;;;;;5073882;28;20514;-67
2024/01/25 07:38:58;;;;;;;16.70;4.78;;;;;;;;;;5073700;28;20036;-67
2024/01/25 07:41:24;;;;;;;17.73;5.78;;;;;;;;;;5057420;28;20440;-66
2024/01/25 07:43:54;;;;;;;17.58;5.65;;;;;;;;;;5072951;28;20051;-66
2024/01/25 07:46:20;;;;;;;14.65;5.05;;;;;;;;;;5071808;28;20490;-66
2024/01/25 07:48:46;;;;;;;17.52;5.50;;;15.60;91.10;;;;;;5073708;28;20404;-66
2024/01/25 07:51:13;;;;;;;18.00;5.60;;;;;;;;;;5073683;28;20177;-67
2024/01/25 07:53:39;;;;;;;17.25;5.13;;;;;;;;;;5055989;28;20048;-66
2024/01/25 07:56:08;;;;;;;18.58;5.35;;;15.30;89.70;;;;;;5038769;28;20592;-66
2024/01/25 07:58:35;;;;;;;15.63;5.28;;;;;;;;;;5040424;28;20044;-64
2024/01/25 08:01:03;;;;;;;18.85;5.63;;;;;;;;;;5073616;28;20119;-66
2024/01/25 08:03:30;;;;;;;16.95;5.72;;;;;;;;;;5056315;28;20086;-67
2024/01/25 08:05:56;;;;;;;18.80;5.45;;;;;;;;;;5073561;28;20044;-67
2024/01/25 08:08:22;;;;;;;18.13;5.50;;;;;;;;;;5071982;28;20135;-67
2024/01/25 08:10:48;;;;;;;17.27;5.70;;;;;;;;;;5073594;28;20044;-67
2024/01/25 08:13:14;;;;;;;17.38;5.72;;;;;;;;;;5090339;28;20052;-67
2024/01/25 08:15:40;;;;;;;18.33;5.85;;;;;;;;;;5072593;28;20056;-67
2024/01/25 08:18:06;;;;;;;17.80;5.30;;;;;;;;;;5071858;28;20102;-67
2024/01/25 08:20:32;;;;;;;17.98;5.80;;;;;;;;;;5068197;28;20076;-67
2024/01/25 08:22:59;;;;;;;17.95;5.97;;;;;;;;;;5037127;28;20056;-67
2024/01/25 08:25:26;;;;;;;17.70;5.63;;;;;;;;;;5069251;28;20139;-67
2024/01/25 08:27:52;;;;;;;16.17;5.13;;;;;;;;;;5052749;28;20048;-67
2024/01/25 08:30:18;;;;;;;17.75;6.20;;;;;;;;;;5066269;28;20136;-67
2024/01/25 08:32:44;;;;;;;18.33;5.50;;;15.50;90.60;;;;;;5062613;28;20045;-67
2024/01/25 08:35:10;;;;;;;16.83;5.80;;;15.50;90.20;;;;;;5054914;28;20374;-67
2024/01/25 08:37:37;;;;;;;17.27;5.82;;;15.30;90.50;;;;;;5067499;28;20456;-67
2024/01/25 08:40:05;;;;;;;17.48;5.53;;;15.30;88.60;;;;;;5065330;28;20083;-67
2024/01/25 08:42:32;;;;;;;19.40;5.88;;;;;;;;;;5067700;28;20524;-67
2024/01/25 08:45:08;;;;;;;14.48;5.57;;;15.60;88.10;;;;;;5066658;28;20047;-67
2024/01/25 08:47:37;;;;;;;21.27;6.13;;;15.40;87.50;;;;;;5052219;28;20052;-67
2024/01/25 08:50:05;;;;;;;20.73;6.80;;;;;;;;;;5050890;28;20048;-66
2024/01/25 08:52:31;;;;;;;23.45;6.28;;;;;;;;;;5050449;28;20106;-67
2024/01/25 08:54:57;;;;;;;18.50;6.00;;;15.50;90.40;;;;;;5065335;28;20047;-67
2024/01/25 08:57:23;;;;;;;19.63;5.70;;;;;;;;;;5066301;28;20048;-67
2024/01/25 08:59:48;;;;;;;16.75;5.88;;;15.30;90.30;;;;;;5047973;28;20444;-67
2024/01/25 09:02:14;;;;;;;16.98;5.78;;;;;;;;;;5056943;28;20052;-66
2024/01/25 09:04:43;;;;;;;21.50;6.07;;;15.70;90.30;;;;;;5071328;28;20375;-69
2024/01/25 09:07:09;;;;;;;25.33;6.20;;;;;;;;;;5054806;28;20693;-67
2024/01/25 09:09:35;;;;;;;24.08;6.40;;;;;;;;;;5059560;28;20056;-67
2024/01/25 09:12:00;;;;;;;19.65;6.85;;;15.40;90.20;;;;;;5052161;28;20048;-67
2024/01/25 09:14:26;;;;;;;19.80;6.07;;;15.40;90.20;;;;;;5052698;28;20029;-67
2024/01/25 09:16:52;;;;;;;19.15;6.38;;;;;;;;;;5072183;28;20111;-67
2024/01/25 09:19:18;;;;;;;20.65;6.43;;;;;;;;;;5068005;28;20051;-67
2024/01/25 09:21:44;;;;;;;19.38;5.93;;;;;;;;;;5053201;28;20044;-68
2024/01/25 09:24:10;;;;;;;19.70;6.43;;;;;;;;;;5066364;28;20384;-67
2024/01/25 09:26:36;;;;;;;20.30;6.50;;;;;;;;;;5032977;28;20057;-67
2024/01/25 09:29:02;;;;;;;23.23;6.70;;;;;;;;;;5042294;28;20052;-67
2024/01/25 09:31:28;;;;;;;20.85;6.78;;;;;;;;;;5053141;28;20072;-67
2024/01/25 09:33:55;;;;;;;22.02;6.70;;;;;;;;;;5053081;28;20048;-67
2024/01/25 09:36:21;;;;;;;21.00;6.70;;;;;;;;;;5052223;28;20447;-68
2024/01/25 09:38:47;;;;;;;19.40;6.00;;;;;;;;;;5032686;28;20041;-69
2024/01/25 09:41:13;;;;;;;19.23;6.50;;;;;;;;;;5034212;28;20057;-69
2024/01/25 09:43:38;;;;;;;17.83;5.72;;;15.40;90.10;;;;;;5028404;28;20049;-69
2024/01/25 09:46:05;;;;;;;19.27;6.22;;;;;;;;;;5032917;28;20456;-69
2024/01/25 09:48:31;;;;;;;21.80;6.93;;;15.50;90.20;;;;;;5033022;28;20092;-66
2024/01/25 09:50:57;;;;;;;22.83;6.32;;;15.60;90.10;;;;;;5048095;28;20073;-68
2024/01/25 09:53:23;;;;;;;27.55;7.80;;;;;;;;;;5022878;28;20372;-68
2024/01/25 09:56:01;;;;;;;33.15;8.00;;;;;;;;;;5033632;28;20125;-69
2024/01/25 09:58:29;;;;;;;33.30;7.88;;;15.70;89.60;;;;;;5032695;28;20479;-69
2024/01/25 10:00:55;;;;;;;28.95;8.00;;;;;;;;;;5009596;28;20156;-68
2024/01/25 10:03:21;;;;;;;31.60;7.85;;;;;;;;;;5023663;28;20068;-68
2024/01/25 10:05:47;;;;;;;30.20;8.05;;;;;;;;;;5049469;28;20045;-68
2024/01/25 10:08:14;;;;;;;29.05;7.43;;;;;;;;;;5052050;28;20103;-68
2024/01/25 10:10:40;;;;;;;28.17;7.97;;;;;;;;;;5049723;28;20068;-67
2024/01/25 10:13:06;;;;;;;28.40;7.13;;;;;;;;;;5051980;28;20053;-68
2024/01/25 10:15:33;;;;;;;23.10;6.95;;;15.50;87.80;;;;;;5051928;28;20045;-67
2024/01/25 10:17:59;;;;;;;27.95;8.00;;;15.50;90.00;;;;;;5051955;28;20053;-66
2024/01/25 10:20:25;;;;;;;25.40;7.43;;;15.50;90.30;;;;;;5040106;28;20128;-66
2024/01/25 10:22:52;;;;;;;23.48;7.07;;;;;;;;;;5051371;28;20091;-64
2024/01/25 10:25:17;;;;;;;28.65;8.05;;;15.50;90.20;;;;;;5087654;28;20060;-64
2024/01/25 10:27:43;;;;;;;24.45;7.20;;;15.50;90.30;;;;;;5093153;28;20434;-64
2024/01/25 10:30:10;;;;;;;25.48;7.30;;;15.80;88.00;;;;;;5092056;28;20040;-65
2024/01/25 10:32:37;;;;;;;23.83;7.57;;;15.50;89.40;;;;;;5051465;28;20063;-62
2024/01/25 10:35:03;;;;;;;29.30;7.80;;;;;;;;;;5048574;28;20393;-67
2024/01/25 10:37:29;;;;;;;25.25;7.60;;;;;;;;;;5073731;28;20062;-67
2024/01/25 10:39:55;;;;;;;35.50;8.98;;;;;;;;;;5056443;28;20044;-66
2024/01/25 10:42:21;;;;;;;25.67;7.60;;;15.60;90.10;;;;;;5056449;28;20059;-66
2024/01/25 10:44:47;;;;;;;24.00;7.50;;;;;;;;;;5073069;28;20040;-66
2024/01/25 10:47:13;;;;;;;29.70;7.80;;;;;;;;;;5051735;28;20054;-67
2024/01/25 10:49:39;;;;;;;27.27;7.18;;;15.50;89.40;;;;;;5074004;28;20055;-66
2024/01/25 10:52:05;;;;;;;23.58;8.07;;;;;;;;;;5055373;28;20044;-67
2024/01/25 10:54:31;;;;;;;27.90;7.20;;;;;;;;;;5055330;28;20044;-66
2024/01/25 10:56:58;;;;;;;22.77;7.65;;;15.60;87.50;;;;;;5056340;28;20551;-68
2024/01/25 10:59:25;;;;;;;26.13;8.45;;;;;;;;;;5087776;28;20039;-67
2024/01/25 11:01:51;;;;;;;32.90;8.15;;;;;;;;;;5090569;28;20051;-67
2024/01/25 11:04:17;;;;;;;40.13;7.70;;;;;;;;;;5072879;28;20128;-67
2024/01/25 11:06:46;;;;;;;36.38;8.05;;;15.80;86.00;;;;;;5068961;28;20075;-67
2024/01/25 11:09:18;;;;;;;37.38;8.52;;;15.90;86.20;;;;;;5071940;28;20052;-65
2024/01/25 11:11:45;;;;;;;30.58;7.63;;;;;;;;;;5042242;28;20044;-66
2024/01/25 11:14:16;;;;;;;31.23;8.57;;;;;;;;;;5070480;28;20059;-66
2024/01/25 11:16:44;;;;;;;39.35;8.75;;;;;;;;;;5073175;28;20100;-65
2024/01/25 11:19:16;;;;;;;25.75;8.27;;;16.10;87.80;;;;;;5072443;28;20048;-66
2024/01/25 11:21:42;;;;;;;32.97;7.65;;;;;;;;;;5057083;28;20044;-65
2024/01/25 11:24:15;;;;;;;37.28;8.57;;;;;;;;;;5062565;28;20060;-65
2024/01/25 11:26:42;;;;;;;29.67;7.07;;;16.00;90.00;;;;;;5054263;28;20056;-65
2024/01/25 11:29:08;;;;;;;27.58;7.35;;;;;;;;;;5054487;28;20874;-65
2024/01/25 11:31:35;;;;;;;32.97;7.93;;;;;;;;;;5083382;28;20541;-65
2024/01/25 11:34:01;;;;;;;24.80;7.72;;;;;;;;;;5053441;28;20336;-65
2024/01/25 11:36:27;;;;;;;26.08;6.93;;;;;;;;;;5073528;28;20513;-66
2024/01/25 11:38:53;;;;;;;25.65;7.53;;;;;;;;;;5089379;28;20059;-66
2024/01/25 11:41:20;;;;;;;25.67;7.20;;;;;;;;;;5073115;28;20454;-65
2024/01/25 11:43:46;;;;;;;22.65;6.97;;;;;;;;;;5056132;28;20395;-65
2024/01/25 11:46:13;;;;;;;24.48;7.05;;;16.30;89.60;;;;;;5086851;28;20051;-66
2024/01/25 11:48:40;;;;;;;24.23;7.78;;;;;;;;;;5071885;28;20118;-65
2024/01/25 11:51:06;;;;;;;30.13;7.35;;;;;;;;;;5091872;28;20044;-66
2024/01/25 11:53:32;;;;;;;26.23;7.75;;;16.50;89.80;;;;;;5071255;28;20040;-68
2024/01/25 11:55:58;;;;;;;28.98;7.38;;;;;;;;;;5035299;28;20077;-66
2024/01/25 11:58:24;;;;;;;29.88;7.65;;;;;;;;;;5054201;28;20043;-67
2024/01/25 12:00:50;;;;;;;39.40;7.45;;;;;;;;;;5082195;28;20048;-67
2024/01/25 12:03:16;;;;;;;29.15;7.43;;;;;;;;;;5061391;28;20580;-67
2024/01/25 12:05:43;;;;;;;31.95;7.70;;;;;;;;;;5072326;28;20047;-67
2024/01/25 12:08:10;;;;;;;31.88;7.82;;;;;;;;;;5083761;28;20048;-66
2024/01/25 12:10:36;;;;;;;31.52;7.85;;;;;;;;;;5089538;28;20076;-67
2024/01/25 12:13:02;;;;;;;35.15;8.45;;;;;;;;;;5069597;28;20529;-67
2024/01/25 12:15:28;;;;;;;25.35;7.75;;;;;;;;;;5067510;28;20481;-67
2024/01/25 12:17:54;;;;;;;27.73;7.95;;;16.30;88.50;;;;;;5054729;28;20055;-67
2024/01/25 12:20:20;;;;;;;33.72;8.23;;;;;;;;;;5058678;28;20044;-68
2024/01/25 12:22:48;;;;;;;26.02;8.05;;;16.20;90.10;;;;;;5090295;28;20044;-67
2024/01/25 12:25:14;;;;;;;25.17;7.78;;;;;;;;;;5055921;28;20441;-67
2024/01/25 12:27:46;;;;;;;28.80;7.75;;;;;;;;;;5054500;28;20113;-66
2024/01/25 12:30:12;;;;;;;29.37;7.50;;;;;;;;;;5092261;28;20048;-67
2024/01/25 12:32:38;;;;;;;23.48;6.90;;;16.00;90.20;;;;;;5089055;28;20040;-67
2024/01/25 12:35:05;;;;;;;24.70;7.43;;;16.30;90.20;;;;;;5075514;28;20044;-66
2024/01/25 12:37:30;;;;;;;29.02;7.88;;;16.10;90.20;;;;;;5079406;28;20209;-66
2024/01/25 12:39:56;;;;;;;24.00;6.90;;;;;;;;;;5042955;28;20413;-67
2024/01/25 12:42:22;;;;;;;22.77;7.13;;;;;;;;;;5091710;28;20190;-66
2024/01/25 12:44:52;;;;;;;22.60;6.80;;;16.00;90.20;;;;;;5059867;28;20044;-67
2024/01/25 12:47:18;;;;;;;24.55;7.15;;;;;;;;;;5059580;28;20163;-66
2024/01/25 12:49:44;;;;;;;23.52;6.88;;;;;;;;;;5060458;28;20046;-66
2024/01/25 12:52:11;;;;;;;26.45;7.75;;;15.90;90.20;;;;;;5038731;28;20051;-67
2024/01/25 12:54:37;;;;;;;20.50;6.88;;;;;;;;;;5049166;28;20547;-67
2024/01/25 12:57:04;;;;;;;19.05;6.28;;;15.90;88.10;;;;;;5060175;28;20054;-66
2024/01/25 12:59:30;;;;;;;23.48;7.03;;;;;;;;;;5075102;28;20100;-66
2024/01/25 13:01:56;;;;;;;20.58;6.53;;;;;;;;;;5074669;28;20052;-66
2024/01/25 13:04:22;;;;;;;22.58;7.05;;;;;;;;;;5075758;28;20048;-66
2024/01/25 13:06:48;;;;;;;24.83;7.28;;;;;;;;;;5076672;28;20056;-66
2024/01/25 13:09:15;;;;;;;20.20;6.22;;;;;;;;;;5075611;28;20097;-66
2024/01/25 13:11:41;;;;;;;25.27;6.07;;;15.80;87.20;;;;;;5075909;28;20052;-66
2024/01/25 13:14:07;;;;;;;23.42;6.75;;;;;;;;;;5040312;28;20044;-66
2024/01/25 13:16:33;;;;;;;19.02;6.18;;;;;;;;;;5074037;28;20051;-66
2024/01/25 13:19:00;;;;;;;20.67;6.70;;;;;;;;;;5075993;28;20116;-66
2024/01/25 13:21:26;;;;;;;23.42;6.53;;;;;;;;;;5071896;28;20051;-66
2024/01/25 13:23:52;;;;;;;22.85;6.22;;;;;;;;;;5046137;28;20086;-66
2024/01/25 13:26:18;;;;;;;18.73;6.15;;;;;;;;;;5075733;28;20076;-66
2024/01/25 13:28:44;;;;;;;20.30;6.28;;;16.00;90.30;;;;;;5084158;28;20051;-66
2024/01/25 13:31:10;;;;;;;18.35;5.88;;;;;;;;;;5077632;28;20048;-66
2024/01/25 13:33:35;;;;;;;21.02;6.30;;;16.00;89.20;;;;;;5075521;28;20101;-66
2024/01/25 13:36:01;;;;;;;18.60;5.75;;;;;;;;;;5073887;28;20818;-66
2024/01/25 13:38:27;;;;;;;16.55;5.85;;;;;;;;;;5075042;28;20104;-66
2024/01/25 13:40:54;;;;;;;18.13;6.10;;;;;;;;;;5075893;28;20044;-66
2024/01/25 13:43:19;;;;;;;17.98;6.18;;;16.10;90.30;;;;;;5071192;28;20059;-66